createdAt,value
2023-05-05T00:01:52.389Z,58.19
2023-05-05T00:04:41.386Z,61.33
2023-05-05T00:07:29.510Z,62.69
2023-05-05T00:10:17.722Z,60.25
2023-05-05T00:13:06.786Z,59.59
2023-05-05T00:15:55.393Z,61.62
2023-05-05T00:18:43.380Z,63.62
2023-05-05T00:21:32.019Z,61.04
2023-05-05T00:24:20.261Z,59.44
2023-05-05T00:27:08.574Z,58.74
2023-05-05T00:29:56.626Z,60.75
2023-05-05T00:32:47.539Z,63.01
2023-05-05T00:35:36.032Z,62.02
2023-05-05T00:38:24.400Z,58.40
2023-05-05T00:41:12.735Z,59.54
2023-05-05T00:44:00.940Z,61.82
2023-05-05T00:46:49.319Z,62.77
2023-05-05T00:49:38.502Z,60.70
2023-05-05T00:52:27.099Z,58.00
2023-05-05T00:55:16.451Z,58.93
2023-05-05T00:58:05.086Z,61.06
2023-05-05T01:00:53.158Z,62.15
2023-05-05T01:03:42.512Z,62.64
2023-05-05T01:07:21.559Z,60.35
2023-05-05T01:11:04.307Z,57.76
2023-05-05T01:14:15.412Z,61.27
2023-05-05T01:17:10.836Z,62.45
2023-05-05T01:20:46.350Z,60.16
2023-05-05T01:24:11.801Z,57.56
2023-05-05T01:27:45.074Z,59.74
2023-05-05T01:30:45.015Z,61.92
2023-05-05T01:33:49.649Z,62.49
2023-05-05T01:36:43.291Z,61.39
2023-05-05T01:39:35.385Z,58.84
2023-05-05T01:42:27.384Z,58.52
2023-05-05T01:45:21.398Z,60.55
2023-05-05T01:48:13.001Z,61.73
2023-05-05T01:51:04.083Z,62.83
2023-05-05T01:54:03.418Z,61.85
2023-05-05T01:56:54.507Z,57.55
2023-05-05T01:59:42.665Z,57.06
2023-05-05T02:02:33.293Z,59.00
2023-05-05T02:05:23.586Z,60.60
2023-05-05T02:08:13.088Z,61.93
2023-05-05T02:11:01.506Z,62.93
2023-05-05T02:13:51.175Z,60.38
2023-05-05T02:16:42.657Z,56.32
2023-05-05T02:19:39.050Z,57.88
2023-05-05T02:22:28.194Z,59.80
2023-05-05T02:25:18.104Z,61.23
2023-05-05T02:28:15.564Z,62.05
2023-05-05T02:31:07.275Z,62.51
2023-05-05T02:33:58.440Z,60.38
2023-05-05T02:36:51.810Z,56.87
2023-05-05T02:40:20.879Z,57.93
2023-05-05T02:43:11.387Z,59.17
2023-05-05T02:45:58.448Z,60.47
2023-05-05T02:48:45.957Z,62.01
2023-05-05T02:51:33.100Z,62.56
2023-05-05T02:54:22.824Z,61.12
2023-05-05T02:57:15.847Z,57.54
2023-05-05T03:00:18.799Z,57.41
2023-05-05T03:04:06.546Z,59.01
2023-05-05T03:07:08.472Z,60.82
2023-05-05T03:10:09.259Z,61.45
2023-05-05T03:13:06.664Z,62.11
2023-05-05T03:16:04.239Z,62.52
2023-05-05T03:19:04.994Z,58.24
2023-05-05T03:21:56.456Z,56.95
2023-05-05T03:24:51.004Z,58.04
2023-05-05T03:27:38.992Z,59.02
2023-05-05T03:30:26.018Z,59.83
2023-05-05T03:33:12.807Z,60.77
2023-05-05T03:36:10.555Z,61.24
2023-05-05T03:39:00.278Z,61.62
2023-05-05T03:41:53.472Z,61.92
2023-05-05T03:44:41.171Z,62.04
2023-05-05T03:47:29.008Z,61.64
2023-05-05T03:50:17.833Z,61.82
2023-05-05T03:53:04.765Z,61.54
2023-05-05T03:55:52.463Z,61.09
2023-05-05T03:58:39.262Z,60.60
2023-05-05T04:01:29.383Z,60.56
2023-05-05T04:04:17.080Z,60.67
2023-05-05T04:07:03.949Z,61.35
2023-05-05T04:09:51.323Z,61.69
2023-05-05T04:12:39.795Z,62.30
2023-05-05T04:15:27.258Z,62.93
2023-05-05T04:18:14.975Z,59.50
2023-05-05T04:21:02.015Z,57.26
2023-05-05T04:23:49.448Z,57.96
2023-05-05T04:26:36.749Z,58.91
2023-05-05T04:29:23.327Z,59.65
2023-05-05T04:32:10.288Z,60.08
2023-05-05T04:34:57.529Z,60.04
2023-05-05T04:37:44.581Z,60.28
2023-05-05T04:40:31.954Z,60.44
2023-05-05T04:43:19.690Z,60.48
2023-05-05T04:46:06.950Z,60.60
2023-05-05T04:48:55.516Z,60.66
2023-05-05T04:51:42.407Z,60.19
2023-05-05T04:54:29.253Z,60.33
2023-05-05T04:57:16.244Z,60.17
2023-05-05T05:00:04.912Z,60.19
2023-05-05T05:02:52.820Z,59.85
2023-05-05T05:05:40.224Z,59.74
2023-05-05T05:08:28.012Z,59.02
2023-05-05T05:11:14.657Z,58.76
2023-05-05T05:14:04.851Z,58.51
2023-05-05T05:16:53.293Z,58.08
2023-05-05T05:19:45.337Z,57.72
2023-05-05T05:22:32.257Z,57.52
2023-05-05T05:25:19.296Z,57.17
2023-05-05T05:28:10.618Z,57.51
2023-05-05T05:31:06.505Z,56.65
2023-05-05T05:33:53.663Z,55.32
2023-05-05T05:36:40.903Z,55.13
2023-05-05T05:39:27.788Z,54.75
2023-05-05T05:42:14.599Z,54.29
2023-05-05T05:45:02.434Z,53.68
2023-05-05T05:47:50.567Z,52.52
2023-05-05T05:50:41.138Z,51.90
2023-05-05T05:53:28.013Z,51.65
2023-05-05T05:56:14.943Z,51.52
2023-05-05T05:59:07.695Z,51.16
2023-05-05T06:02:22.275Z,50.02
2023-05-05T06:05:15.189Z,49.88
2023-05-05T06:08:18.458Z,50.31
2023-05-05T06:11:08.052Z,47.74
2023-05-05T06:13:54.867Z,45.38
2023-05-05T06:16:43.809Z,42.98
2023-05-05T06:19:33.896Z,41.09
2023-05-05T06:22:23.481Z,41.46
2023-05-05T06:25:10.645Z,40.65
2023-05-05T06:27:58.300Z,40.61
2023-05-05T06:30:51.671Z,40.50
2023-05-05T06:33:38.344Z,41.17
2023-05-05T06:36:34.657Z,40.74
2023-05-05T06:39:24.955Z,40.76
2023-05-05T06:42:11.372Z,40.44
2023-05-05T06:45:00.287Z,41.19
2023-05-05T06:47:47.189Z,41.77
2023-05-05T06:50:35.291Z,42.30
2023-05-05T06:53:21.914Z,41.46
2023-05-05T06:56:08.584Z,39.32
2023-05-05T06:58:55.400Z,39.39
2023-05-05T07:01:45.768Z,37.15
2023-05-05T07:04:33.160Z,37.26
2023-05-05T07:07:20.530Z,36.75
2023-05-05T07:10:09.073Z,35.17
2023-05-05T07:12:56.722Z,33.70
2023-05-05T07:15:45.799Z,32.89
2023-05-05T07:18:32.608Z,32.68
2023-05-05T07:21:18.788Z,31.91
2023-05-05T07:24:06.932Z,31.51
2023-05-05T07:26:53.890Z,29.60
2023-05-05T07:29:40.524Z,28.19
2023-05-05T07:32:27.160Z,28.73
2023-05-05T07:35:13.968Z,29.18
2023-05-05T07:38:00.898Z,29.44
2023-05-05T07:40:47.669Z,29.71
2023-05-05T07:43:39.349Z,30.03
2023-05-05T07:46:28.558Z,28.81
2023-05-05T07:49:15.751Z,27.44
2023-05-05T07:52:03.230Z,27.02
2023-05-05T07:54:53.054Z,27.07
2023-05-05T07:57:39.684Z,27.48
2023-05-05T08:00:26.232Z,27.22
2023-05-05T08:03:12.953Z,26.80
2023-05-05T08:06:15.341Z,27.03
2023-05-05T08:09:02.498Z,25.82
2023-05-05T08:11:48.941Z,25.31
2023-05-05T08:14:36.291Z,24.66
2023-05-05T08:17:25.238Z,23.52
2023-05-05T08:20:12.614Z,22.86
2023-05-05T08:23:00.175Z,21.92
2023-05-05T08:25:50.379Z,21.99
2023-05-05T08:28:36.793Z,22.12
2023-05-05T08:31:23.426Z,22.80
2023-05-05T08:34:10.237Z,23.56
2023-05-05T08:36:56.751Z,23.91
2023-05-05T08:39:43.150Z,24.50
2023-05-05T08:42:37.211Z,24.21
2023-05-05T08:45:27.546Z,23.16
2023-05-05T08:48:19.428Z,22.58
2023-05-05T08:51:07.691Z,22.17
2023-05-05T08:53:55.394Z,21.47
2023-05-05T08:56:46.458Z,21.78
2023-05-05T08:59:34.771Z,22.47
2023-05-05T09:02:23.268Z,22.77
2023-05-05T09:05:10.032Z,22.68
2023-05-05T09:07:57.114Z,22.49
2023-05-05T09:10:45.206Z,22.20
2023-05-05T09:13:32.296Z,21.91
2023-05-05T09:16:18.795Z,21.07
2023-05-05T09:19:05.382Z,21.20
2023-05-05T09:21:51.957Z,21.26
2023-05-05T09:24:54.133Z,21.00
2023-05-05T09:27:47.764Z,20.49
2023-05-05T09:30:35.379Z,20.40
2023-05-05T09:33:31.674Z,20.96
2023-05-05T09:36:18.017Z,21.11
2023-05-05T09:39:05.828Z,21.20
2023-05-05T09:41:55.172Z,21.69
2023-05-05T09:44:45.169Z,21.84
2023-05-05T09:47:37.297Z,22.21
2023-05-05T09:50:23.781Z,22.28
2023-05-05T09:53:12.329Z,22.63
2023-05-05T09:56:00.653Z,22.62
2023-05-05T09:58:47.248Z,22.57
2023-05-05T10:01:34.340Z,22.81
2023-05-05T10:04:29.365Z,22.90
2023-05-05T10:07:23.875Z,22.27
2023-05-05T10:10:17.200Z,21.93
2023-05-05T10:13:03.972Z,21.76
2023-05-05T10:15:54.282Z,21.93
2023-05-05T10:18:45.927Z,21.16
2023-05-05T10:21:40.896Z,21.37
2023-05-05T10:24:50.304Z,21.35
2023-05-05T10:27:53.183Z,21.94
2023-05-05T10:30:43.688Z,22.81
2023-05-05T10:34:06.199Z,23.43
2023-05-05T10:36:55.788Z,23.03
2023-05-05T10:39:45.099Z,23.06
2023-05-05T10:42:32.194Z,23.04
2023-05-05T10:45:19.200Z,23.44
2023-05-05T10:48:18.245Z,23.65
2023-05-05T10:51:38.369Z,23.67
2023-05-05T10:55:04.050Z,23.63
2023-05-05T10:57:53.168Z,23.82
2023-05-05T11:00:40.847Z,23.72
2023-05-05T11:03:29.617Z,23.85
2023-05-05T11:06:20.584Z,23.44
2023-05-05T11:09:28.828Z,23.41
2023-05-05T11:12:17.361Z,22.71
2023-05-05T11:15:31.150Z,22.50
2023-05-05T11:18:45.008Z,23.04
2023-05-05T11:21:59.902Z,23.02
2023-05-05T11:24:48.576Z,23.43
2023-05-05T11:28:30.797Z,23.75
2023-05-05T11:31:18.941Z,23.99
2023-05-05T11:34:27.973Z,24.02
2023-05-05T11:40:46.583Z,25.20
2023-05-05T11:43:36.878Z,25.65
2023-05-05T11:46:25.306Z,26.07
2023-05-05T11:49:26.357Z,26.09
2023-05-05T11:52:14.522Z,26.39
2023-05-05T11:55:01.592Z,26.48
2023-05-05T11:57:50.115Z,27.00
2023-05-05T12:00:37.175Z,28.10
2023-05-05T12:03:23.822Z,29.13
2023-05-05T12:06:10.714Z,30.12
2023-05-05T12:08:57.038Z,30.82
2023-05-05T12:11:58.381Z,31.02
2023-05-05T12:14:52.576Z,31.59
2023-05-05T12:17:44.170Z,32.31
2023-05-05T12:20:33.006Z,32.32
2023-05-05T12:23:20.048Z,33.11
2023-05-05T12:26:07.581Z,32.98
2023-05-05T12:28:56.207Z,33.12
2023-05-05T12:31:42.883Z,33.47
2023-05-05T12:34:32.003Z,33.66
2023-05-05T12:37:20.046Z,33.82
2023-05-05T12:40:27.544Z,34.40
2023-05-05T12:43:33.313Z,34.81
2023-05-05T12:46:20.000Z,35.69
2023-05-05T12:49:09.453Z,36.09
2023-05-05T12:51:56.763Z,36.68
2023-05-05T12:54:59.179Z,36.83
2023-05-05T12:58:01.460Z,36.24
2023-05-05T13:01:08.453Z,36.39
2023-05-05T13:04:09.122Z,36.50
2023-05-05T13:07:17.225Z,36.90
2023-05-05T13:10:10.226Z,37.16
2023-05-05T13:12:58.009Z,36.99
2023-05-05T13:15:44.637Z,37.35
2023-05-05T13:18:31.684Z,37.67
2023-05-05T13:21:18.905Z,37.69
2023-05-05T13:24:20.741Z,37.74
2023-05-05T13:27:10.337Z,37.98
2023-05-05T13:29:58.716Z,38.32
2023-05-05T13:32:45.235Z,38.73
2023-05-05T13:35:32.372Z,39.06
2023-05-05T13:38:19.446Z,38.50
2023-05-05T13:41:06.936Z,38.18
2023-05-05T13:43:53.789Z,37.74
2023-05-05T13:46:44.941Z,37.30
2023-05-05T13:49:31.762Z,37.20
2023-05-05T13:52:18.823Z,37.24
2023-05-05T13:55:06.988Z,37.69
2023-05-05T13:57:54.393Z,38.08
2023-05-05T14:00:42.437Z,38.50
2023-05-05T14:03:30.502Z,38.53
2023-05-05T14:06:19.128Z,38.46
2023-05-05T14:09:07.346Z,38.45
2023-05-05T14:11:54.511Z,38.76
2023-05-05T14:14:41.811Z,38.58
2023-05-05T14:17:28.706Z,38.33
2023-05-05T14:20:15.645Z,38.64
2023-05-05T14:23:02.969Z,39.53
2023-05-05T14:25:49.908Z,39.97
2023-05-05T14:28:36.891Z,39.80
2023-05-05T14:31:23.633Z,39.54
2023-05-05T14:34:10.178Z,39.35
2023-05-05T14:36:57.168Z,39.70
2023-05-05T14:39:43.747Z,40.03
2023-05-05T14:42:32.765Z,39.66
2023-05-05T14:45:19.433Z,39.64
2023-05-05T14:48:06.666Z,39.85
2023-05-05T14:50:53.465Z,39.70
2023-05-05T14:53:40.270Z,39.74
2023-05-05T14:56:27.788Z,39.79
2023-05-05T14:59:15.618Z,39.42
2023-05-05T15:02:03.549Z,39.39
2023-05-05T15:04:52.528Z,39.41
2023-05-05T15:07:41.383Z,39.14
2023-05-05T15:10:28.767Z,39.16
2023-05-05T15:13:16.838Z,39.05
2023-05-05T15:16:04.347Z,38.53
2023-05-05T15:25:38.980Z,38.27
2023-05-05T15:28:25.974Z,38.55
2023-05-05T15:31:13.032Z,38.61
2023-05-05T15:34:01.040Z,38.76
2023-05-05T15:36:50.503Z,38.89
2023-05-05T15:39:37.690Z,38.76
2023-05-05T15:42:25.051Z,38.80
2023-05-05T15:45:12.259Z,38.64
2023-05-05T15:47:59.588Z,38.60
2023-05-05T15:50:46.713Z,39.37
2023-05-05T15:53:34.249Z,39.89
2023-05-05T15:56:22.074Z,40.27
2023-05-05T15:59:08.845Z,40.63
2023-05-05T16:01:55.796Z,40.84
2023-05-05T16:04:44.358Z,41.09
2023-05-05T16:07:31.475Z,41.21
2023-05-05T16:10:19.818Z,41.71
2023-05-05T16:13:07.078Z,41.76
2023-05-05T16:15:53.977Z,42.45
2023-05-05T16:18:40.811Z,42.84
2023-05-05T16:21:28.811Z,43.04
2023-05-05T16:24:16.254Z,43.12
2023-05-05T16:27:03.797Z,43.38
2023-05-05T16:29:51.198Z,44.00
2023-05-05T16:32:38.181Z,43.98
2023-05-05T16:35:25.467Z,44.67
2023-05-05T16:38:13.172Z,46.30
2023-05-05T16:41:00.296Z,46.65
2023-05-05T16:43:47.804Z,46.40
2023-05-05T16:46:39.469Z,47.12
2023-05-05T16:49:26.730Z,48.16
2023-05-05T16:52:14.181Z,48.29
2023-05-05T16:55:04.202Z,48.49
2023-05-05T16:57:51.102Z,49.05
2023-05-05T17:00:38.512Z,49.56
2023-05-05T17:03:27.370Z,49.87
2023-05-05T17:06:15.538Z,50.19
2023-05-05T17:09:03.380Z,49.98
2023-05-05T17:11:52.857Z,50.40
2023-05-05T17:14:41.498Z,50.75
2023-05-05T17:17:28.755Z,50.88
2023-05-05T17:20:16.145Z,51.30
2023-05-05T17:23:03.221Z,51.55
2023-05-05T17:26:00.103Z,51.82
2023-05-05T17:28:47.232Z,52.12
2023-05-05T17:31:34.253Z,52.09
2023-05-05T17:34:22.286Z,52.32
2023-05-05T17:37:10.696Z,51.87
2023-05-05T17:39:58.161Z,51.93
2023-05-05T17:42:45.068Z,52.85
2023-05-05T17:45:32.486Z,52.58
2023-05-05T17:48:19.810Z,52.91
2023-05-05T17:51:07.890Z,53.12
2023-05-05T17:53:57.379Z,54.46
2023-05-05T17:56:45.172Z,55.00
2023-05-05T17:59:32.223Z,54.92
2023-05-05T18:02:21.440Z,55.98
2023-05-05T18:05:10.219Z,56.71
2023-05-05T18:07:56.919Z,56.89
2023-05-05T18:10:45.029Z,56.29
2023-05-05T18:13:32.388Z,56.40
2023-05-05T18:16:19.440Z,57.14
2023-05-05T18:19:06.731Z,57.34
2023-05-05T18:21:55.173Z,57.32
2023-05-05T18:24:42.394Z,57.39
2023-05-05T18:27:32.101Z,58.77
2023-05-05T18:30:19.093Z,58.34
2023-05-05T18:33:07.707Z,58.08
2023-05-05T18:35:57.851Z,58.59
2023-05-05T18:38:47.836Z,59.26
2023-05-05T18:41:35.381Z,59.88
2023-05-05T18:44:22.479Z,60.12
2023-05-05T18:47:09.592Z,60.02
2023-05-05T18:49:56.761Z,60.28
2023-05-05T18:52:43.937Z,60.39
